sensor_id;sensor_type;location;lat;lon;timestamp;temperature;humidity
21493;DHT22;10908;50.690;4.400;2023-02-22T00:00:24;4.00;91.80
21493;DHT22;10908;50.690;4.400;2023-02-22T00:03:09;4.10;91.80
21493;DHT22;10908;50.690;4.400;2023-02-22T00:05:36;4.10;91.80
21493;DHT22;10908;50.690;4.400;2023-02-22T00:08:05;4.20;91.70
21493;DHT22;10908;50.690;4.400;2023-02-22T00:10:34;4.20;91.60
21493;DHT22;10908;50.690;4.400;2023-02-22T00:13:04;4.10;91.40
21493;DHT22;10908;50.690;4.400;2023-02-22T00:15:30;3.90;91.40
21493;DHT22;10908;50.690;4.400;2023-02-22T00:17:56;4.10;91.50
21493;DHT22;10908;50.690;4.400;2023-02-22T00:20:22;4.20;91.60
21493;DHT22;10908;50.690;4.400;2023-02-22T00:22:49;4.10;91.70
21493;DHT22;10908;50.690;4.400;2023-02-22T00:25:18;4.00;91.60
21493;DHT22;10908;50.690;4.400;2023-02-22T00:27:45;3.70;91.40
21493;DHT22;10908;50.690;4.400;2023-02-22T00:30:18;3.80;91.50
21493;DHT22;10908;50.690;4.400;2023-02-22T00:32:46;3.90;91.70
21493;DHT22;10908;50.690;4.400;2023-02-22T00:35:13;4.00;91.80
21493;DHT22;10908;50.690;4.400;2023-02-22T00:37:39;4.10;91.90
21493;DHT22;10908;50.690;4.400;2023-02-22T00:40:13;3.90;91.70
21493;DHT22;10908;50.690;4.400;2023-02-22T00:42:40;3.80;91.30
21493;DHT22;10908;50.690;4.400;2023-02-22T00:45:06;3.70;91.20
21493;DHT22;10908;50.690;4.400;2023-02-22T00:47:32;3.80;91.30
21493;DHT22;10908;50.690;4.400;2023-02-22T00:49:57;3.80;91.20
21493;DHT22;10908;50.690;4.400;2023-02-22T00:52:25;3.80;91.20
21493;DHT22;10908;50.690;4.400;2023-02-22T00:54:50;3.90;91.00
21493;DHT22;10908;50.690;4.400;2023-02-22T00:57:16;3.90;90.70
21493;DHT22;10908;50.690;4.400;2023-02-22T00:59:43;3.80;90.40
21493;DHT22;10908;50.690;4.400;2023-02-22T01:02:09;3.70;90.30
21493;DHT22;10908;50.690;4.400;2023-02-22T01:04:34;3.60;90.10
21493;DHT22;10908;50.690;4.400;2023-02-22T01:07:00;3.80;90.20
21493;DHT22;10908;50.690;4.400;2023-02-22T01:09:25;3.80;90.30
21493;DHT22;10908;50.690;4.400;2023-02-22T01:11:53;3.90;90.30
21493;DHT22;10908;50.690;4.400;2023-02-22T01:14:25;4.00;90.20
21493;DHT22;10908;50.690;4.400;2023-02-22T01:16:53;3.90;89.90
21493;DHT22;10908;50.690;4.400;2023-02-22T01:19:19;3.90;89.70
21493;DHT22;10908;50.690;4.400;2023-02-22T01:21:45;3.80;89.60
21493;DHT22;10908;50.690;4.400;2023-02-22T01:24:12;3.80;89.60
21493;DHT22;10908;50.690;4.400;2023-02-22T01:26:48;3.80;89.60
21493;DHT22;10908;50.690;4.400;2023-02-22T01:29:15;3.70;89.50
21493;DHT22;10908;50.690;4.400;2023-02-22T01:31:42;3.60;89.50
21493;DHT22;10908;50.690;4.400;2023-02-22T01:34:11;3.60;89.50
21493;DHT22;10908;50.690;4.400;2023-02-22T01:36:37;3.50;89.60
21493;DHT22;10908;50.690;4.400;2023-02-22T01:39:04;3.40;89.60
21493;DHT22;10908;50.690;4.400;2023-02-22T01:41:30;3.50;90.00
21493;DHT22;10908;50.690;4.400;2023-02-22T01:43:56;3.50;90.10
21493;DHT22;10908;50.690;4.400;2023-02-22T01:46:26;3.60;90.30
21493;DHT22;10908;50.690;4.400;2023-02-22T01:49:02;3.80;90.30
21493;DHT22;10908;50.690;4.400;2023-02-22T01:51:34;3.90;90.10
21493;DHT22;10908;50.690;4.400;2023-02-22T01:54:12;4.00;89.90
21493;DHT22;10908;50.690;4.400;2023-02-22T01:57:19;4.20;89.70
21493;DHT22;10908;50.690;4.400;2023-02-22T01:59:39;4.30;89.30
21493;DHT22;10908;50.690;4.400;2023-02-22T02:02:06;4.20;88.50
21493;DHT22;10908;50.690;4.400;2023-02-22T02:04:33;4.20;88.40
21493;DHT22;10908;50.690;4.400;2023-02-22T02:07:02;4.30;88.20
21493;DHT22;10908;50.690;4.400;2023-02-22T02:09:43;4.20;88.00
21493;DHT22;10908;50.690;4.400;2023-02-22T02:12:14;4.30;87.90
21493;DHT22;10908;50.690;4.400;2023-02-22T02:14:41;4.30;87.70
21493;DHT22;10908;50.690;4.400;2023-02-22T02:17:10;4.40;87.40
21493;DHT22;10908;50.690;4.400;2023-02-22T02:20:02;4.30;87.10
21493;DHT22;10908;50.690;4.400;2023-02-22T02:36:10;4.40;86.80
21493;DHT22;10908;50.690;4.400;2023-02-22T02:41:36;4.10;86.80
21493;DHT22;10908;50.690;4.400;2023-02-22T02:49:14;3.90;87.30
21493;DHT22;10908;50.690;4.400;2023-02-22T02:51:45;3.80;87.40
21493;DHT22;10908;50.690;4.400;2023-02-22T02:54:13;3.70;87.80
21493;DHT22;10908;50.690;4.400;2023-02-22T02:56:40;3.70;88.00
21493;DHT22;10908;50.690;4.400;2023-02-22T02:59:42;3.60;88.00
21493;DHT22;10908;50.690;4.400;2023-02-22T03:05:15;3.50;88.40
21493;DHT22;10908;50.690;4.400;2023-02-22T03:13:08;3.80;88.40
21493;DHT22;10908;50.690;4.400;2023-02-22T03:15:50;3.80;88.20
21493;DHT22;10908;50.690;4.400;2023-02-22T03:21:31;3.80;87.90
21493;DHT22;10908;50.690;4.400;2023-02-22T03:24:17;3.60;87.80
21493;DHT22;10908;50.690;4.400;2023-02-22T03:29:20;3.60;88.10
21493;DHT22;10908;50.690;4.400;2023-02-22T03:31:56;3.50;88.20
21493;DHT22;10908;50.690;4.400;2023-02-22T03:34:31;3.50;88.40
21493;DHT22;10908;50.690;4.400;2023-02-22T03:37:04;3.50;88.40
21493;DHT22;10908;50.690;4.400;2023-02-22T03:39:35;3.30;88.30
21493;DHT22;10908;50.690;4.400;2023-02-22T03:42:12;3.20;88.60
21493;DHT22;10908;50.690;4.400;2023-02-22T03:44:40;3.20;89.10
21493;DHT22;10908;50.690;4.400;2023-02-22T03:47:15;3.20;89.20
21493;DHT22;10908;50.690;4.400;2023-02-22T03:49:55;3.30;89.40
21493;DHT22;10908;50.690;4.400;2023-02-22T03:52:22;3.50;89.40
21493;DHT22;10908;50.690;4.400;2023-02-22T03:54:50;3.60;89.10
21493;DHT22;10908;50.690;4.400;2023-02-22T03:57:48;3.70;88.90
21493;DHT22;10908;50.690;4.400;2023-02-22T04:00:20;3.70;88.40
21493;DHT22;10908;50.690;4.400;2023-02-22T04:02:47;3.60;88.00
21493;DHT22;10908;50.690;4.400;2023-02-22T04:05:13;3.60;87.80
21493;DHT22;10908;50.690;4.400;2023-02-22T04:07:39;3.60;87.70
21493;DHT22;10908;50.690;4.400;2023-02-22T04:10:05;3.60;87.70
21493;DHT22;10908;50.690;4.400;2023-02-22T04:12:34;3.60;87.60
21493;DHT22;10908;50.690;4.400;2023-02-22T04:15:00;3.60;87.50
21493;DHT22;10908;50.690;4.400;2023-02-22T04:17:26;3.60;87.40
21493;DHT22;10908;50.690;4.400;2023-02-22T04:19:52;3.50;87.60
21493;DHT22;10908;50.690;4.400;2023-02-22T04:22:18;3.50;87.70
21493;DHT22;10908;50.690;4.400;2023-02-22T04:24:43;3.50;87.80
21493;DHT22;10908;50.690;4.400;2023-02-22T04:27:10;3.40;87.90
21493;DHT22;10908;50.690;4.400;2023-02-22T04:29:35;3.50;88.10
21493;DHT22;10908;50.690;4.400;2023-02-22T04:32:01;3.40;88.20
21493;DHT22;10908;50.690;4.400;2023-02-22T04:34:27;3.70;88.20
21493;DHT22;10908;50.690;4.400;2023-02-22T04:36:52;3.80;88.10
21493;DHT22;10908;50.690;4.400;2023-02-22T04:39:18;3.80;87.80
21493;DHT22;10908;50.690;4.400;2023-02-22T04:41:43;4.00;87.60
21493;DHT22;10908;50.690;4.400;2023-02-22T04:44:09;4.30;87.20
21493;DHT22;10908;50.690;4.400;2023-02-22T04:46:35;4.30;86.80
21493;DHT22;10908;50.690;4.400;2023-02-22T04:49:00;4.20;86.30
21493;DHT22;10908;50.690;4.400;2023-02-22T04:51:26;4.20;86.30
21493;DHT22;10908;50.690;4.400;2023-02-22T04:53:52;4.40;86.30
21493;DHT22;10908;50.690;4.400;2023-02-22T04:56:18;4.30;86.00
21493;DHT22;10908;50.690;4.400;2023-02-22T04:58:44;4.30;86.00
21493;DHT22;10908;50.690;4.400;2023-02-22T05:01:10;4.20;86.20
21493;DHT22;10908;50.690;4.400;2023-02-22T05:03:38;4.20;86.40
21493;DHT22;10908;50.690;4.400;2023-02-22T05:06:04;4.20;86.40
21493;DHT22;10908;50.690;4.400;2023-02-22T05:08:30;4.30;86.30
21493;DHT22;10908;50.690;4.400;2023-02-22T05:10:55;4.30;86.30
21493;DHT22;10908;50.690;4.400;2023-02-22T05:13:21;4.40;86.30
21493;DHT22;10908;50.690;4.400;2023-02-22T05:15:46;4.20;86.10
21493;DHT22;10908;50.690;4.400;2023-02-22T05:18:13;4.20;86.20
21493;DHT22;10908;50.690;4.400;2023-02-22T05:20:39;4.40;86.10
21493;DHT22;10908;50.690;4.400;2023-02-22T05:23:04;4.30;86.20
21493;DHT22;10908;50.690;4.400;2023-02-22T05:25:31;4.30;86.30
21493;DHT22;10908;50.690;4.400;2023-02-22T05:27:59;4.30;86.30
21493;DHT22;10908;50.690;4.400;2023-02-22T05:30:29;4.40;86.30
21493;DHT22;10908;50.690;4.400;2023-02-22T05:32:55;4.30;86.00
21493;DHT22;10908;50.690;4.400;2023-02-22T05:35:22;4.20;86.00
21493;DHT22;10908;50.690;4.400;2023-02-22T05:37:48;4.10;86.30
21493;DHT22;10908;50.690;4.400;2023-02-22T05:40:20;4.20;86.50
21493;DHT22;10908;50.690;4.400;2023-02-22T05:42:46;4.20;86.50
21493;DHT22;10908;50.690;4.400;2023-02-22T05:45:13;4.20;86.60
21493;DHT22;10908;50.690;4.400;2023-02-22T05:47:39;4.20;86.50
21493;DHT22;10908;50.690;4.400;2023-02-22T05:50:05;3.90;86.40
21493;DHT22;10908;50.690;4.400;2023-02-22T05:52:31;3.50;87.10
21493;DHT22;10908;50.690;4.400;2023-02-22T05:54:57;3.50;88.10
21493;DHT22;10908;50.690;4.400;2023-02-22T05:57:23;3.80;88.60
21493;DHT22;10908;50.690;4.400;2023-02-22T05:59:48;3.80;88.80
21493;DHT22;10908;50.690;4.400;2023-02-22T06:02:14;3.80;88.60
21493;DHT22;10908;50.690;4.400;2023-02-22T06:04:42;3.80;88.60
21493;DHT22;10908;50.690;4.400;2023-02-22T06:07:08;3.80;88.50
21493;DHT22;10908;50.690;4.400;2023-02-22T06:09:33;3.70;88.50
21493;DHT22;10908;50.690;4.400;2023-02-22T06:11:59;3.70;88.50
21493;DHT22;10908;50.690;4.400;2023-02-22T06:14:25;3.80;88.70
21493;DHT22;10908;50.690;4.400;2023-02-22T06:16:55;3.60;88.50
21493;DHT22;10908;50.690;4.400;2023-02-22T06:19:21;3.60;88.80
21493;DHT22;10908;50.690;4.400;2023-02-22T06:22:06;3.60;88.80
21493;DHT22;10908;50.690;4.400;2023-02-22T06:24:32;3.60;88.80
21493;DHT22;10908;50.690;4.400;2023-02-22T06:27:00;3.80;88.80
21493;DHT22;10908;50.690;4.400;2023-02-22T06:29:27;3.90;88.60
21493;DHT22;10908;50.690;4.400;2023-02-22T06:31:53;3.90;88.20
21493;DHT22;10908;50.690;4.400;2023-02-22T06:34:20;3.80;87.90
21493;DHT22;10908;50.690;4.400;2023-02-22T06:36:47;3.70;87.90
21493;DHT22;10908;50.690;4.400;2023-02-22T06:39:16;3.80;87.90
21493;DHT22;10908;50.690;4.400;2023-02-22T06:41:44;3.70;87.80
21493;DHT22;10908;50.690;4.400;2023-02-22T06:44:11;3.50;87.80
21493;DHT22;10908;50.690;4.400;2023-02-22T06:46:37;3.40;88.00
21493;DHT22;10908;50.690;4.400;2023-02-22T06:49:03;3.30;88.30
21493;DHT22;10908;50.690;4.400;2023-02-22T06:51:30;3.20;88.90
21493;DHT22;10908;50.690;4.400;2023-02-22T06:54:00;3.20;89.20
21493;DHT22;10908;50.690;4.400;2023-02-22T06:56:25;3.20;89.30
21493;DHT22;10908;50.690;4.400;2023-02-22T06:58:51;3.40;89.40
21493;DHT22;10908;50.690;4.400;2023-02-22T07:01:16;3.40;89.40
21493;DHT22;10908;50.690;4.400;2023-02-22T07:03:42;3.30;89.40
21493;DHT22;10908;50.690;4.400;2023-02-22T07:06:08;3.30;89.60
21493;DHT22;10908;50.690;4.400;2023-02-22T07:08:35;3.50;89.70
21493;DHT22;10908;50.690;4.400;2023-02-22T07:11:01;3.60;89.70
21493;DHT22;10908;50.690;4.400;2023-02-22T07:13:27;3.60;89.40
21493;DHT22;10908;50.690;4.400;2023-02-22T07:15:54;3.60;89.20
21493;DHT22;10908;50.690;4.400;2023-02-22T07:18:19;3.70;89.00
21493;DHT22;10908;50.690;4.400;2023-02-22T07:20:45;3.70;88.90
21493;DHT22;10908;50.690;4.400;2023-02-22T07:23:14;3.80;89.10
21493;DHT22;10908;50.690;4.400;2023-02-22T07:25:41;3.90;89.10
21493;DHT22;10908;50.690;4.400;2023-02-22T07:28:06;4.00;89.00
21493;DHT22;10908;50.690;4.400;2023-02-22T07:30:33;4.00;88.80
21493;DHT22;10908;50.690;4.400;2023-02-22T07:33:00;4.00;88.80
21493;DHT22;10908;50.690;4.400;2023-02-22T07:35:27;4.10;88.80
21493;DHT22;10908;50.690;4.400;2023-02-22T07:37:53;4.40;89.00
21493;DHT22;10908;50.690;4.400;2023-02-22T07:40:20;4.60;89.20
21493;DHT22;10908;50.690;4.400;2023-02-22T07:42:54;5.00;89.30
21493;DHT22;10908;50.690;4.400;2023-02-22T07:45:21;5.20;89.20
21493;DHT22;10908;50.690;4.400;2023-02-22T07:47:47;5.40;88.80
21493;DHT22;10908;50.690;4.400;2023-02-22T07:50:17;5.60;88.40
21493;DHT22;10908;50.690;4.400;2023-02-22T07:52:47;5.70;88.10
21493;DHT22;10908;50.690;4.400;2023-02-22T07:55:15;5.90;87.70
21493;DHT22;10908;50.690;4.400;2023-02-22T07:57:42;6.00;87.50
21493;DHT22;10908;50.690;4.400;2023-02-22T08:00:09;6.20;87.40
21493;DHT22;10908;50.690;4.400;2023-02-22T08:02:35;6.30;87.00
21493;DHT22;10908;50.690;4.400;2023-02-22T08:05:00;6.50;87.00
21493;DHT22;10908;50.690;4.400;2023-02-22T08:07:26;6.60;87.10
21493;DHT22;10908;50.690;4.400;2023-02-22T08:09:51;6.80;87.10
21493;DHT22;10908;50.690;4.400;2023-02-22T08:12:17;6.90;87.00
21493;DHT22;10908;50.690;4.400;2023-02-22T08:14:43;7.10;86.70
21493;DHT22;10908;50.690;4.400;2023-02-22T08:17:08;7.20;86.50
21493;DHT22;10908;50.690;4.400;2023-02-22T08:19:34;7.30;86.20
21493;DHT22;10908;50.690;4.400;2023-02-22T08:21:59;7.40;85.90
21493;DHT22;10908;50.690;4.400;2023-02-22T08:24:25;7.50;85.70
21493;DHT22;10908;50.690;4.400;2023-02-22T08:26:51;7.60;85.50
21493;DHT22;10908;50.690;4.400;2023-02-22T08:29:16;7.70;85.30
21493;DHT22;10908;50.690;4.400;2023-02-22T08:31:49;7.70;85.30
21493;DHT22;10908;50.690;4.400;2023-02-22T08:34:14;7.80;84.90
21493;DHT22;10908;50.690;4.400;2023-02-22T08:36:43;7.90;84.90
21493;DHT22;10908;50.690;4.400;2023-02-22T08:39:09;7.90;84.80
21493;DHT22;10908;50.690;4.400;2023-02-22T08:41:35;8.10;84.90
21493;DHT22;10908;50.690;4.400;2023-02-22T08:44:00;8.20;84.60
21493;DHT22;10908;50.690;4.400;2023-02-22T08:46:27;8.20;84.10
21493;DHT22;10908;50.690;4.400;2023-02-22T08:48:52;8.30;83.80
21493;DHT22;10908;50.690;4.400;2023-02-22T08:51:19;8.30;83.40
21493;DHT22;10908;50.690;4.400;2023-02-22T08:53:44;8.40;83.30
21493;DHT22;10908;50.690;4.400;2023-02-22T08:56:10;8.50;82.90
21493;DHT22;10908;50.690;4.400;2023-02-22T08:58:36;8.50;83.00
21493;DHT22;10908;50.690;4.400;2023-02-22T09:01:02;8.50;82.90
21493;DHT22;10908;50.690;4.400;2023-02-22T09:03:27;8.50;82.90
21493;DHT22;10908;50.690;4.400;2023-02-22T09:05:54;8.50;83.00
21493;DHT22;10908;50.690;4.400;2023-02-22T09:08:19;8.50;83.40
21493;DHT22;10908;50.690;4.400;2023-02-22T09:10:45;8.50;83.80
21493;DHT22;10908;50.690;4.400;2023-02-22T09:13:11;8.40;84.20
21493;DHT22;10908;50.690;4.400;2023-02-22T09:15:37;8.50;84.20
21493;DHT22;10908;50.690;4.400;2023-02-22T09:18:06;8.50;84.30
21493;DHT22;10908;50.690;4.400;2023-02-22T09:20:35;8.60;84.40
21493;DHT22;10908;50.690;4.400;2023-02-22T09:23:02;8.60;84.20
21493;DHT22;10908;50.690;4.400;2023-02-22T09:25:28;8.60;84.10
21493;DHT22;10908;50.690;4.400;2023-02-22T09:27:55;8.60;84.10
21493;DHT22;10908;50.690;4.400;2023-02-22T09:32:52;8.80;83.50
21493;DHT22;10908;50.690;4.400;2023-02-22T09:35:18;8.90;83.30
21493;DHT22;10908;50.690;4.400;2023-02-22T09:37:44;8.90;83.00
21493;DHT22;10908;50.690;4.400;2023-02-22T09:40:15;8.90;82.90
21493;DHT22;10908;50.690;4.400;2023-02-22T09:42:58;9.00;82.90
21493;DHT22;10908;50.690;4.400;2023-02-22T09:45:31;9.00;82.70
21493;DHT22;10908;50.690;4.400;2023-02-22T09:48:03;9.00;82.70
21493;DHT22;10908;50.690;4.400;2023-02-22T09:50:36;9.10;82.70
21493;DHT22;10908;50.690;4.400;2023-02-22T09:54:01;9.20;82.50
21493;DHT22;10908;50.690;4.400;2023-02-22T09:56:04;9.20;82.50
21493;DHT22;10908;50.690;4.400;2023-02-22T09:58:37;9.40;82.30
21493;DHT22;10908;50.690;4.400;2023-02-22T10:01:28;9.50;82.30
21493;DHT22;10908;50.690;4.400;2023-02-22T10:04:22;9.60;81.90
21493;DHT22;10908;50.690;4.400;2023-02-22T10:09:26;9.70;81.40
21493;DHT22;10908;50.690;4.400;2023-02-22T10:11:57;9.70;81.00
21493;DHT22;10908;50.690;4.400;2023-02-22T10:17:43;9.90;80.80
21493;DHT22;10908;50.690;4.400;2023-02-22T10:23:35;10.10;81.00
21493;DHT22;10908;50.690;4.400;2023-02-22T10:26:28;10.30;81.30
21493;DHT22;10908;50.690;4.400;2023-02-22T10:29:04;10.30;80.80
21493;DHT22;10908;50.690;4.400;2023-02-22T10:31:35;10.40;80.70
21493;DHT22;10908;50.690;4.400;2023-02-22T10:34:04;10.50;80.30
21493;DHT22;10908;50.690;4.400;2023-02-22T10:36:31;10.60;79.80
21493;DHT22;10908;50.690;4.400;2023-02-22T10:41:42;10.60;79.40
21493;DHT22;10908;50.690;4.400;2023-02-22T10:44:11;10.60;79.40
21493;DHT22;10908;50.690;4.400;2023-02-22T10:46:37;10.60;79.30
21493;DHT22;10908;50.690;4.400;2023-02-22T10:49:05;10.60;79.20
21493;DHT22;10908;50.690;4.400;2023-02-22T10:51:34;10.60;79.00
21493;DHT22;10908;50.690;4.400;2023-02-22T10:56:46;10.50;79.40
21493;DHT22;10908;50.690;4.400;2023-02-22T10:59:35;10.60;79.30
21493;DHT22;10908;50.690;4.400;2023-02-22T11:02:20;10.60;79.30
21493;DHT22;10908;50.690;4.400;2023-02-22T11:04:56;10.60;79.50
21493;DHT22;10908;50.690;4.400;2023-02-22T11:07:32;10.60;79.40
21493;DHT22;10908;50.690;4.400;2023-02-22T11:10:04;10.60;79.40
21493;DHT22;10908;50.690;4.400;2023-02-22T11:12:31;10.60;79.60
21493;DHT22;10908;50.690;4.400;2023-02-22T11:17:50;10.70;79.60
21493;DHT22;10908;50.690;4.400;2023-02-22T11:20:27;10.50;79.50
21493;DHT22;10908;50.690;4.400;2023-02-22T11:22:56;10.50;79.90
21493;DHT22;10908;50.690;4.400;2023-02-22T11:25:29;10.50;80.00
21493;DHT22;10908;50.690;4.400;2023-02-22T11:28:09;10.60;80.20
21493;DHT22;10908;50.690;4.400;2023-02-22T11:30:40;10.50;80.30
21493;DHT22;10908;50.690;4.400;2023-02-22T11:33:19;10.60;80.10
21493;DHT22;10908;50.690;4.400;2023-02-22T11:35:50;10.50;80.10
21493;DHT22;10908;50.690;4.400;2023-02-22T11:41:14;10.80;80.50
21493;DHT22;10908;50.690;4.400;2023-02-22T11:43:49;10.80;79.70
21493;DHT22;10908;50.690;4.400;2023-02-22T11:46:26;10.90;79.40
21493;DHT22;10908;50.690;4.400;2023-02-22T11:56:48;10.90;79.80
21493;DHT22;10908;50.690;4.400;2023-02-22T11:59:35;11.00;79.50
21493;DHT22;10908;50.690;4.400;2023-02-22T12:07:52;11.10;79.40
21493;DHT22;10908;50.690;4.400;2023-02-22T12:16:02;11.30;79.10
21493;DHT22;10908;50.690;4.400;2023-02-22T12:18:37;11.40;79.00
21493;DHT22;10908;50.690;4.400;2023-02-22T12:21:10;11.30;78.90
21493;DHT22;10908;50.690;4.400;2023-02-22T12:26:44;11.40;78.90
21493;DHT22;10908;50.690;4.400;2023-02-22T12:29:22;11.30;79.30
21493;DHT22;10908;50.690;4.400;2023-02-22T12:31:55;11.40;79.30
21493;DHT22;10908;50.690;4.400;2023-02-22T12:34:30;11.40;79.30
21493;DHT22;10908;50.690;4.400;2023-02-22T12:37:10;11.40;79.10
21493;DHT22;10908;50.690;4.400;2023-02-22T12:40:11;11.40;79.20
21493;DHT22;10908;50.690;4.400;2023-02-22T12:42:55;11.40;79.20
21493;DHT22;10908;50.690;4.400;2023-02-22T12:45:33;11.30;79.40
21493;DHT22;10908;50.690;4.400;2023-02-22T12:48:24;11.30;79.40
21493;DHT22;10908;50.690;4.400;2023-02-22T12:50:57;11.30;79.50
21493;DHT22;10908;50.690;4.400;2023-02-22T12:53:32;11.30;79.80
21493;DHT22;10908;50.690;4.400;2023-02-22T12:59:04;11.40;79.90
21493;DHT22;10908;50.690;4.400;2023-02-22T13:01:43;11.40;79.70
21493;DHT22;10908;50.690;4.400;2023-02-22T13:04:09;11.40;79.60
21493;DHT22;10908;50.690;4.400;2023-02-22T13:09:50;11.50;79.60
21493;DHT22;10908;50.690;4.400;2023-02-22T13:12:45;11.40;79.80
21493;DHT22;10908;50.690;4.400;2023-02-22T13:18:20;11.40;80.10
21493;DHT22;10908;50.690;4.400;2023-02-22T13:21:03;11.40;80.20
21493;DHT22;10908;50.690;4.400;2023-02-22T13:26:24;11.40;80.60
21493;DHT22;10908;50.690;4.400;2023-02-22T13:29:12;11.40;80.50
21493;DHT22;10908;50.690;4.400;2023-02-22T13:31:56;11.50;80.70
21493;DHT22;10908;50.690;4.400;2023-02-22T13:34:49;11.40;80.70
21493;DHT22;10908;50.690;4.400;2023-02-22T13:42:53;11.40;81.20
21493;DHT22;10908;50.690;4.400;2023-02-22T13:53:50;11.40;81.40
21493;DHT22;10908;50.690;4.400;2023-02-22T13:56:21;11.40;81.10
21493;DHT22;10908;50.690;4.400;2023-02-22T13:58:58;11.40;81.30
21493;DHT22;10908;50.690;4.400;2023-02-22T14:01:46;11.40;81.40
21493;DHT22;10908;50.690;4.400;2023-02-22T14:06:44;11.30;81.50
21493;DHT22;10908;50.690;4.400;2023-02-22T14:09:15;11.10;81.90
21493;DHT22;10908;50.690;4.400;2023-02-22T14:11:45;11.10;82.10
21493;DHT22;10908;50.690;4.400;2023-02-22T14:14:13;11.10;82.00
21493;DHT22;10908;50.690;4.400;2023-02-22T14:16:40;11.10;82.10
21493;DHT22;10908;50.690;4.400;2023-02-22T14:21:34;11.00;82.20
21493;DHT22;10908;50.690;4.400;2023-02-22T14:24:13;11.00;82.40
21493;DHT22;10908;50.690;4.400;2023-02-22T14:26:55;10.90;82.40
21493;DHT22;10908;50.690;4.400;2023-02-22T14:29:22;11.00;82.10
21493;DHT22;10908;50.690;4.400;2023-02-22T14:34:38;10.90;82.10
21493;DHT22;10908;50.690;4.400;2023-02-22T14:37:13;10.90;82.20
21493;DHT22;10908;50.690;4.400;2023-02-22T14:39:45;10.80;82.40
21493;DHT22;10908;50.690;4.400;2023-02-22T14:47:27;10.90;82.80
21493;DHT22;10908;50.690;4.400;2023-02-22T14:49:59;10.90;82.60
21493;DHT22;10908;50.690;4.400;2023-02-22T14:52:31;10.90;82.90
21493;DHT22;10908;50.690;4.400;2023-02-22T14:57:50;10.80;83.10
21493;DHT22;10908;50.690;4.400;2023-02-22T15:00:48;10.80;83.20
21493;DHT22;10908;50.690;4.400;2023-02-22T15:03:27;10.80;83.20
21493;DHT22;10908;50.690;4.400;2023-02-22T15:06:17;10.80;83.10
21493;DHT22;10908;50.690;4.400;2023-02-22T15:08:44;10.80;83.10
21493;DHT22;10908;50.690;4.400;2023-02-22T15:11:25;10.70;83.20
21493;DHT22;10908;50.690;4.400;2023-02-22T15:13:55;10.80;83.10
21493;DHT22;10908;50.690;4.400;2023-02-22T15:16:25;10.80;83.10
21493;DHT22;10908;50.690;4.400;2023-02-22T15:18:54;10.70;83.20
21493;DHT22;10908;50.690;4.400;2023-02-22T15:21:24;10.80;83.30
21493;DHT22;10908;50.690;4.400;2023-02-22T15:23:57;10.80;83.20
21493;DHT22;10908;50.690;4.400;2023-02-22T15:28:56;10.80;83.40
21493;DHT22;10908;50.690;4.400;2023-02-22T15:31:29;10.80;83.30
21493;DHT22;10908;50.690;4.400;2023-02-22T15:33:55;10.70;83.10
21493;DHT22;10908;50.690;4.400;2023-02-22T15:36:26;10.80;83.30
21493;DHT22;10908;50.690;4.400;2023-02-22T15:38:53;10.70;83.20
21493;DHT22;10908;50.690;4.400;2023-02-22T15:41:26;10.60;83.30
21493;DHT22;10908;50.690;4.400;2023-02-22T15:45:18;10.50;83.70
21493;DHT22;10908;50.690;4.400;2023-02-22T15:47:45;10.50;83.80
21493;DHT22;10908;50.690;4.400;2023-02-22T15:50:26;10.40;84.00
21493;DHT22;10908;50.690;4.400;2023-02-22T15:52:58;10.50;84.10
21493;DHT22;10908;50.690;4.400;2023-02-22T15:55:36;10.50;84.10
21493;DHT22;10908;50.690;4.400;2023-02-22T15:58:11;10.40;84.10
21493;DHT22;10908;50.690;4.400;2023-02-22T16:00:39;10.30;84.30
21493;DHT22;10908;50.690;4.400;2023-02-22T16:03:11;10.20;84.50
21493;DHT22;10908;50.690;4.400;2023-02-22T16:05:38;10.20;84.50
21493;DHT22;10908;50.690;4.400;2023-02-22T16:08:13;10.10;84.50
21493;DHT22;10908;50.690;4.400;2023-02-22T16:10:48;10.10;84.80
21493;DHT22;10908;50.690;4.400;2023-02-22T16:13:23;10.20;84.60
21493;DHT22;10908;50.690;4.400;2023-02-22T16:16:04;10.10;84.40
21493;DHT22;10908;50.690;4.400;2023-02-22T16:18:37;10.00;84.50
21493;DHT22;10908;50.690;4.400;2023-02-22T16:21:06;10.00;84.50
21493;DHT22;10908;50.690;4.400;2023-02-22T16:23:48;10.00;84.40
21493;DHT22;10908;50.690;4.400;2023-02-22T16:28:51;10.00;84.50
21493;DHT22;10908;50.690;4.400;2023-02-22T16:31:22;10.10;84.50
21493;DHT22;10908;50.690;4.400;2023-02-22T16:33:49;10.10;84.20
21493;DHT22;10908;50.690;4.400;2023-02-22T16:36:16;10.10;84.20
21493;DHT22;10908;50.690;4.400;2023-02-22T16:38:43;10.00;84.10
21493;DHT22;10908;50.690;4.400;2023-02-22T16:41:11;10.00;84.00
21493;DHT22;10908;50.690;4.400;2023-02-22T16:43:38;9.90;84.20
21493;DHT22;10908;50.690;4.400;2023-02-22T16:46:04;9.90;84.50
21493;DHT22;10908;50.690;4.400;2023-02-22T16:48:32;9.80;84.90
21493;DHT22;10908;50.690;4.400;2023-02-22T16:51:05;9.80;85.20
21493;DHT22;10908;50.690;4.400;2023-02-22T16:53:32;9.70;85.40
21493;DHT22;10908;50.690;4.400;2023-02-22T16:56:02;9.70;85.70
21493;DHT22;10908;50.690;4.400;2023-02-22T16:58:32;9.60;85.90
21493;DHT22;10908;50.690;4.400;2023-02-22T17:00:58;9.60;86.20
21493;DHT22;10908;50.690;4.400;2023-02-22T17:03:24;9.60;86.30
21493;DHT22;10908;50.690;4.400;2023-02-22T17:05:50;9.70;86.30
21493;DHT22;10908;50.690;4.400;2023-02-22T17:08:16;9.70;86.20
21493;DHT22;10908;50.690;4.400;2023-02-22T17:10:42;9.70;86.20
21493;DHT22;10908;50.690;4.400;2023-02-22T17:13:07;9.70;86.20
21493;DHT22;10908;50.690;4.400;2023-02-22T17:15:34;9.70;86.30
21493;DHT22;10908;50.690;4.400;2023-02-22T17:18:03;9.60;86.30
21493;DHT22;10908;50.690;4.400;2023-02-22T17:20:35;9.60;86.30
21493;DHT22;10908;50.690;4.400;2023-02-22T17:23:06;9.60;86.50
21493;DHT22;10908;50.690;4.400;2023-02-22T17:25:40;9.60;86.40
21493;DHT22;10908;50.690;4.400;2023-02-22T17:28:06;9.70;86.30
21493;DHT22;10908;50.690;4.400;2023-02-22T17:30:32;9.70;86.30
21493;DHT22;10908;50.690;4.400;2023-02-22T17:33:01;9.70;86.30
21493;DHT22;10908;50.690;4.400;2023-02-22T17:35:36;9.70;86.40
21493;DHT22;10908;50.690;4.400;2023-02-22T17:38:03;9.60;86.50
21493;DHT22;10908;50.690;4.400;2023-02-22T17:40:37;9.70;86.40
21493;DHT22;10908;50.690;4.400;2023-02-22T17:43:04;9.70;86.20
21493;DHT22;10908;50.690;4.400;2023-02-22T17:45:36;9.60;86.20
21493;DHT22;10908;50.690;4.400;2023-02-22T17:48:02;9.60;86.40
21493;DHT22;10908;50.690;4.400;2023-02-22T17:50:27;9.60;86.50
21493;DHT22;10908;50.690;4.400;2023-02-22T17:52:56;9.60;86.50
21493;DHT22;10908;50.690;4.400;2023-02-22T17:55:22;9.60;86.50
21493;DHT22;10908;50.690;4.400;2023-02-22T17:57:52;9.60;86.50
21493;DHT22;10908;50.690;4.400;2023-02-22T18:00:25;9.70;86.40
21493;DHT22;10908;50.690;4.400;2023-02-22T18:02:59;9.60;86.50
21493;DHT22;10908;50.690;4.400;2023-02-22T18:05:24;9.60;86.70
21493;DHT22;10908;50.690;4.400;2023-02-22T18:07:51;9.60;86.70
21493;DHT22;10908;50.690;4.400;2023-02-22T18:10:17;9.80;87.20